Time;durP1;ratioP1;P1;durP2;ratioP2;P2;SDS_P1;SDS_P2;PMS_P1;PMS_P2;Temp;Humidity;BMP_temperature;BMP_pressure;BME280_temperature;BME280_humidity;BME280_pressure;Samples;Min_cycle;Max_cycle;Signal;HPM_P1;HPM_P2
2021/12/17 00:00:49;;;;;;;14.60;6.68;;;;;;;;;;2398762;56;21042;-80
2021/12/17 00:03:20;;;;;;;16.80;7.07;;;;;;;;;;2398924;56;21065;-79
2021/12/17 00:06:06;;;;;;;11.12;6.12;;;;;;;;;;2658027;52;21110;-80
2021/12/17 00:08:34;;;;;;;17.23;7.07;;;;;;;;;;2399089;56;21054;-80
2021/12/17 00:11:02;;;;;;;16.75;6.80;;;;;;;;;;2399045;56;21038;-80
2021/12/17 00:13:29;;;;;;;17.92;6.70;;;;;;;;;;2399049;56;21114;-78
2021/12/17 00:15:56;;;;;;;19.60;7.82;;;;;;;;;;2399217;56;21109;-80
2021/12/17 00:18:28;;;;;;;13.82;7.10;;;;;;;;;;2657606;52;21054;-80
2021/12/17 00:48:51;;;;;;;22.83;9.73;;;;;;;;;;2347213;57;20998;-78
2021/12/17 00:51:55;;;;;;;24.17;11.05;;;;;;;;;;2347650;57;21049;-78
2021/12/17 00:54:28;;;;;;;;;;;;;;;;;;2351261;57;21029;-77
2021/12/17 00:56:56;;;;;;;24.13;9.47;;;;;;;;;;2348112;57;20086;-77
2021/12/17 00:59:23;;;;;;;23.17;9.82;;;;;;;;;;2594646;52;21085;-77
2021/12/17 01:01:51;;;;;;;18.42;8.70;;;;;;;;;;2347499;57;21540;-76
2021/12/17 01:04:18;;;;;;;23.83;10.73;;;;;;;;;;2347258;57;21093;-76
2021/12/17 01:06:46;;;;;;;18.90;8.68;;;;;;;;;;2347805;57;21046;-76
2021/12/17 01:09:16;;;;;;;21.40;9.48;;;;;;;;;;2347131;57;21096;-76
2021/12/17 01:11:43;;;;;;;16.40;7.85;;;;;;;;;;2595456;53;21049;-77
2021/12/17 01:14:11;;;;;;;18.75;8.13;;;;;;;;;;2594607;53;21077;-77
2021/12/17 01:16:38;;;;;;;15.02;7.30;;;;;;;;;;2594492;52;21031;-76
2021/12/17 01:19:14;;;;;;;15.13;7.12;;;;;;;;;;2347325;57;21121;-76
2021/12/17 01:21:56;;;;;;;16.58;8.65;;;;;;;;;;2347991;57;21104;-76
2021/12/17 01:24:40;;;;;;;17.92;6.05;;;;;;;;;;2347598;57;21389;-77
2021/12/17 01:35:41;;;;;;;11.32;5.97;;;;;;;;;;2347585;57;20962;-77
2021/12/17 01:43:55;;;;;;;11.85;4.47;;;;;;;;;;2345709;57;21117;-76
2021/12/17 01:46:24;;;;;;;13.05;5.50;;;;;;;;;;2346634;57;21038;-76
2021/12/17 01:49:03;;;;;;;11.32;4.87;;;;;;;;;;2346278;57;21073;-77
2021/12/17 01:59:51;;;;;;;9.63;5.70;;;;;;;;;;2344852;57;21041;-75
2021/12/17 02:02:18;;;;;;;13.77;5.68;;;;;;;;;;2346074;57;21058;-76
2021/12/17 02:04:45;;;;;;;11.43;4.62;;;;;;;;;;2345252;57;21053;-76
2021/12/17 02:07:13;;;;;;;12.35;5.45;;;;;;;;;;2346173;57;21116;-75
2021/12/17 02:21:27;;;;;;;13.30;5.22;;;;;;;;;;2373386;56;22154;-76
2021/12/17 02:30:06;;;;;;;14.35;5.30;;;;;;;;;;2374315;56;21015;-77
2021/12/17 02:32:36;;;;;;;13.62;6.47;;;;;;;;;;2374648;56;21099;-76
2021/12/17 02:35:22;;;;;;;12.32;5.97;;;;;;;;;;2374103;56;21043;-76
2021/12/17 02:37:50;;;;;;;12.18;5.93;;;;;;;;;;2374921;56;21051;-76
2021/12/17 02:42:29;;;;;;;13.88;5.45;;;;;;;;;;2375076;56;21050;-76
2021/12/17 02:47:41;;;;;;;13.75;5.53;;;;;;;;;;2373917;56;20983;-76
2021/12/17 02:50:10;;;;;;;12.98;6.37;;;;;;;;;;2372256;56;21193;-77
2021/12/17 02:52:38;;;;;;;16.92;6.00;;;;;;;;;;2374525;56;21110;-75
2021/12/17 02:55:07;;;;;;;13.85;6.97;;;;;;;;;;2374067;56;21102;-76
2021/12/17 02:57:34;;;;;;;17.90;6.57;;;;;;;;;;2374711;56;21062;-76
2021/12/17 03:00:02;;;;;;;12.32;5.62;;;;;;;;;;2374519;56;21170;-76
2021/12/17 03:02:31;;;;;;;18.35;7.57;;;;;;;;;;2375484;56;21083;-77
2021/12/17 03:04:59;;;;;;;13.10;5.97;;;;;;;;;;2375265;56;21185;-77
2021/12/17 03:07:26;;;;;;;12.98;6.12;;;;;;;;;;2374921;56;21071;-78
2021/12/17 03:10:03;;;;;;;12.13;4.78;;;;;;;;;;2374818;56;21098;-77
2021/12/17 03:12:35;;;;;;;10.73;4.97;;;;;;;;;;2375139;56;21655;-76
2021/12/17 03:15:10;;;;;;;10.57;5.07;;;;;;;;;;2628644;52;21058;-75
2021/12/17 03:17:44;;;;;;;12.43;4.80;;;;;;;;;;2374893;56;21047;-76
2021/12/17 03:25:42;;;;;;;12.43;5.10;;;;;;;;;;2374037;56;20995;-77
2021/12/17 03:28:09;;;;;;;10.65;5.45;;;;;;;;;;2373543;56;21410;-76
2021/12/17 03:30:37;;;;;;;8.77;3.95;;;;;;;;;;2371525;56;21043;-77
2021/12/17 03:33:04;;;;;;;8.80;3.33;;;;;;;;;;2373219;56;21047;-77
2021/12/17 03:35:31;;;;;;;8.35;3.47;;;;;;;;;;2373897;56;21051;-77
2021/12/17 03:37:58;;;;;;;6.37;3.22;;;;;;;;;;2373581;56;22148;-77
2021/12/17 03:40:26;;;;;;;9.52;3.80;;;;;;;;;;2373591;56;21138;-77
2021/12/17 03:43:01;;;;;;;7.40;3.67;;;;;;;;;;2373799;56;21027;-77
2021/12/17 03:45:28;;;;;;;5.57;2.78;;;;;;;;;;2373990;56;21486;-77
2021/12/17 03:47:55;;;;;;;7.78;3.92;;;;;;;;;;2627041;52;21111;-77
2021/12/17 03:50:23;;;;;;;9.15;4.37;;;;;;;;;;2373914;56;21019;-77
2021/12/17 03:52:50;;;;;;;7.72;3.70;;;;;;;;;;2375517;56;21051;-77
2021/12/17 03:55:17;;;;;;;8.55;3.72;;;;;;;;;;2374756;56;21062;-76
2021/12/17 03:57:44;;;;;;;9.82;4.00;;;;;;;;;;2629186;52;21110;-77
2021/12/17 04:00:13;;;;;;;7.53;3.20;;;;;;;;;;2628062;52;21027;-76
2021/12/17 04:02:40;;;;;;;7.87;3.75;;;;;;;;;;2374917;56;21039;-78
2021/12/17 04:05:08;;;;;;;13.62;3.62;;;;;;;;;;2626305;52;21543;-78
2021/12/17 04:07:35;;;;;;;5.40;2.70;;;;;;;;;;2375556;56;21039;-76
2021/12/17 04:10:02;;;;;;;6.43;3.22;;;;;;;;;;2374571;56;22258;-77
2021/12/17 04:12:41;;;;;;;3.70;2.08;;;;;;;;;;2375199;56;21043;-77
2021/12/17 04:15:09;;;;;;;4.87;2.17;;;;;;;;;;2375749;56;21051;-78
2021/12/17 04:17:42;;;;;;;5.35;2.42;;;;;;;;;;2373604;56;21090;-77
2021/12/17 04:20:10;;;;;;;5.07;2.58;;;;;;;;;;2373237;56;21117;-77
2021/12/17 04:22:37;;;;;;;4.62;2.53;;;;;;;;;;2373922;56;21599;-77
2021/12/17 04:25:05;;;;;;;5.20;2.65;;;;;;;;;;2373904;56;21278;-77
2021/12/17 04:27:32;;;;;;;6.57;2.70;;;;;;;;;;2373751;56;21035;-77
2021/12/17 04:29:59;;;;;;;5.50;2.62;;;;;;;;;;2626744;52;21106;-77
2021/12/17 04:32:26;;;;;;;5.43;2.75;;;;;;;;;;2373803;56;21130;-77
2021/12/17 04:34:53;;;;;;;4.87;2.50;;;;;;;;;;2373813;56;21062;-77
2021/12/17 04:37:20;;;;;;;5.10;2.35;;;;;;;;;;2372772;56;21027;-77
2021/12/17 04:39:48;;;;;;;6.57;3.10;;;;;;;;;;2372775;56;21051;-77
2021/12/17 04:42:20;;;;;;;4.62;2.17;;;;;;;;;;2372930;56;21115;-77
2021/12/17 04:44:52;;;;;;;3.62;2.17;;;;;;;;;;2373710;56;21036;-77
2021/12/17 04:58:23;;;;;;;4.93;1.98;;;;;;;;;;2371869;54;21757;-75
2021/12/17 05:00:50;;;;;;;4.78;1.90;;;;;;;;;;2301025;58;21133;-76
2021/12/17 05:03:17;;;;;;;4.07;1.73;;;;;;;;;;2301077;58;21125;-76
2021/12/17 05:05:44;;;;;;;3.97;2.00;;;;;;;;;;2301312;58;21068;-74
2021/12/17 05:08:15;;;;;;;17.10;3.22;;;;;;;;;;2301220;58;21039;-76
2021/12/17 05:10:59;;;;;;;7.15;2.60;;;;;;;;;;2301130;58;21062;-74
2021/12/17 05:19:03;;;;;;;5.00;2.15;;;;;;;;;;2307406;54;21090;-74
2021/12/17 05:21:29;;;;;;;;;;;;;;;;;;2305183;58;21290;-77
2021/12/17 05:23:56;;;;;;;4.72;2.10;;;;;;;;;;2301426;58;20076;-76
2021/12/17 05:26:23;;;;;;;4.12;2.00;;;;;;;;;;2301208;58;21094;-76
2021/12/17 05:28:52;;;;;;;5.55;2.65;;;;;;;;;;2300778;58;21063;-76
2021/12/17 05:31:21;;;;;;;5.43;2.08;;;;;;;;;;2300298;58;22242;-76
2021/12/17 05:33:48;;;;;;;5.75;2.15;;;;;;;;;;2300916;58;21129;-76
2021/12/17 05:36:15;;;;;;;5.85;2.55;;;;;;;;;;2301255;58;21130;-77
2021/12/17 05:38:42;;;;;;;6.53;2.55;;;;;;;;;;2301008;58;21612;-76
2021/12/17 05:41:09;;;;;;;4.25;2.08;;;;;;;;;;2301345;58;21062;-76
2021/12/17 05:43:38;;;;;;;6.10;2.78;;;;;;;;;;2301361;58;21074;-76
2021/12/17 05:46:10;;;;;;;6.20;2.80;;;;;;;;;;2301452;58;21050;-76
2021/12/17 05:48:37;;;;;;;7.10;2.43;;;;;;;;;;2301478;58;21046;-76
2021/12/17 05:51:05;;;;;;;5.93;2.78;;;;;;;;;;2300898;58;21059;-76
2021/12/17 05:53:32;;;;;;;4.70;2.70;;;;;;;;;;2301177;58;21062;-76
2021/12/17 05:55:59;;;;;;;5.90;2.92;;;;;;;;;;2301513;58;21117;-76
2021/12/17 05:58:26;;;;;;;4.60;2.45;;;;;;;;;;2301149;58;21054;-74
2021/12/17 06:00:54;;;;;;;4.53;2.37;;;;;;;;;;2301387;58;21601;-76
2021/12/17 06:03:23;;;;;;;4.20;2.00;;;;;;;;;;2301465;58;21122;-77
2021/12/17 06:05:50;;;;;;;5.30;2.30;;;;;;;;;;2308031;54;21201;-76
2021/12/17 06:08:17;;;;;;;6.47;2.50;;;;;;;;;;2321748;54;21711;-76
2021/12/17 06:10:44;;;;;;;8.43;3.37;;;;;;;;;;2301049;58;21042;-76
2021/12/17 06:13:11;;;;;;;7.87;3.22;;;;;;;;;;2373895;54;21046;-76
2021/12/17 06:15:38;;;;;;;7.30;3.25;;;;;;;;;;2302101;58;21632;-82
2021/12/17 06:18:05;;;;;;;10.55;4.18;;;;;;;;;;2301704;58;21075;-76
2021/12/17 06:20:32;;;;;;;9.43;4.62;;;;;;;;;;2396791;54;21074;-76
2021/12/17 06:22:59;;;;;;;16.27;4.75;;;;;;;;;;2301620;58;21042;-73
2021/12/17 06:25:26;;;;;;;13.93;4.97;;;;;;;;;;2301431;58;21058;-76
2021/12/17 06:27:53;;;;;;;14.40;5.43;;;;;;;;;;2357412;54;21042;-76
2021/12/17 06:30:20;;;;;;;14.13;5.35;;;;;;;;;;2301519;58;21357;-76
2021/12/17 06:32:47;;;;;;;13.18;5.12;;;;;;;;;;2301771;58;21062;-77
2021/12/17 06:35:15;;;;;;;13.30;5.40;;;;;;;;;;2301533;58;21086;-75
2021/12/17 06:37:43;;;;;;;16.83;5.72;;;;;;;;;;2301688;58;21070;-76
2021/12/17 06:40:11;;;;;;;17.30;8.07;;;;;;;;;;2301216;58;21305;-73
2021/12/17 06:42:38;;;;;;;16.67;6.97;;;;;;;;;;2301670;58;21066;-76
2021/12/17 06:45:15;;;;;;;19.08;7.75;;;;;;;;;;2301623;58;21134;-76
2021/12/17 06:47:45;;;;;;;12.90;5.87;;;;;;;;;;2301546;58;21537;-76
2021/12/17 06:56:33;;;;;;;17.00;8.82;;;;;;;;;;2336593;57;27797;-75
2021/12/17 06:59:08;;;;;;;16.50;7.43;;;;;;;;;;2362042;56;21122;-76
2021/12/17 07:10:16;;;;;;;15.77;6.07;;;;;;;;;;2488207;52;21034;-75
2021/12/17 07:21:24;;;;;;;21.80;9.00;;;;;;;;;;2376033;53;21110;-75
2021/12/17 07:24:35;;;;;;;;;;;;;;;;;;2633001;52;21051;-76
2021/12/17 07:32:49;;;;;;;17.98;7.28;;;;;;;;;;2380908;54;21121;-74
2021/12/17 07:35:38;;;;;;;19.58;7.95;;;;;;;;;;2387291;52;21127;-74
2021/12/17 07:40:51;;;;;;;11.68;5.68;;;;;;;;;;2481790;52;20986;-74
2021/12/17 07:43:26;;;;;;;15.20;6.80;;;;;;;;;;2582038;52;21596;-75
2021/12/17 07:45:53;;;;;;;16.90;6.22;;;;;;;;;;2375068;56;21051;-76
2021/12/17 07:48:21;;;;;;;19.62;7.95;;;;;;;;;;2375419;56;21177;-76
2021/12/17 07:50:49;;;;;;;13.75;6.47;;;;;;;;;;2374727;56;21542;-75
2021/12/17 07:53:16;;;;;;;16.33;6.57;;;;;;;;;;2375442;56;21035;-76
2021/12/17 07:55:43;;;;;;;13.55;6.55;;;;;;;;;;2375253;56;21074;-75
2021/12/17 07:58:10;;;;;;;14.85;6.45;;;;;;;;;;2374942;56;21106;-76
2021/12/17 08:00:37;;;;;;;19.42;7.85;;;;;;;;;;2374951;56;21162;-76
2021/12/17 08:03:05;;;;;;;22.00;8.18;;;;;;;;;;2375345;56;21585;-76
2021/12/17 08:05:32;;;;;;;19.20;7.32;;;;;;;;;;2375162;56;21027;-75
2021/12/17 08:07:59;;;;;;;19.87;7.50;;;;;;;;;;2375296;56;21106;-76
2021/12/17 08:10:26;;;;;;;18.55;7.40;;;;;;;;;;2467733;52;21549;-76
2021/12/17 08:12:55;;;;;;;16.92;7.00;;;;;;;;;;2483231;52;21039;-76
2021/12/17 08:15:29;;;;;;;14.82;6.78;;;;;;;;;;2375546;56;21102;-75
2021/12/17 08:29:24;;;;;;;18.30;9.02;;;;;;;;;;2321237;57;27911;-75
2021/12/17 08:31:52;;;;;;;21.85;7.95;;;;;;;;;;2347717;57;21057;-75
2021/12/17 08:34:19;;;;;;;13.77;6.72;;;;;;;;;;2347405;57;21033;-76
2021/12/17 08:36:46;;;;;;;17.27;6.68;;;;;;;;;;2346890;57;21084;-75
2021/12/17 08:39:13;;;;;;;33.13;9.68;;;;;;;;;;2347100;57;21168;-75
2021/12/17 08:41:41;;;;;;;14.77;6.97;;;;;;;;;;2347739;57;22123;-75
2021/12/17 08:44:08;;;;;;;16.23;7.55;;;;;;;;;;2347538;57;21033;-76
2021/12/17 08:46:36;;;;;;;23.00;7.95;;;;;;;;;;2347691;57;21050;-76
2021/12/17 08:49:03;;;;;;;16.65;7.72;;;;;;;;;;2347013;57;21085;-75
2021/12/17 08:51:30;;;;;;;21.60;7.60;;;;;;;;;;2347612;57;21177;-73
2021/12/17 08:53:58;;;;;;;14.85;5.75;;;;;;;;;;2347836;57;21105;-76
2021/12/17 08:56:29;;;;;;;20.88;7.15;;;;;;;;;;2347758;57;21042;-75
2021/12/17 08:58:56;;;;;;;15.27;7.05;;;;;;;;;;2346411;57;21042;-76
2021/12/17 09:01:23;;;;;;;25.55;7.78;;;;;;;;;;2347661;57;21544;-75
2021/12/17 09:03:50;;;;;;;14.52;6.55;;;;;;;;;;2557513;53;21113;-77
2021/12/17 09:06:17;;;;;;;13.43;6.60;;;;;;;;;;2347750;57;21029;-75
2021/12/17 09:08:44;;;;;;;14.63;7.40;;;;;;;;;;2346130;57;21117;-75
2021/12/17 09:11:11;;;;;;;13.90;6.62;;;;;;;;;;2347021;53;21117;-75
2021/12/17 09:13:38;;;;;;;11.05;5.45;;;;;;;;;;2347442;57;21379;-75
2021/12/17 09:16:06;;;;;;;8.40;5.00;;;;;;;;;;2347524;57;21041;-75
2021/12/17 09:18:34;;;;;;;9.43;5.37;;;;;;;;;;2347619;57;21603;-75
2021/12/17 09:21:01;;;;;;;15.80;6.47;;;;;;;;;;2585382;53;21118;-75
2021/12/17 09:23:28;;;;;;;10.82;5.45;;;;;;;;;;2347584;57;21114;-76
2021/12/17 09:25:55;;;;;;;12.73;6.12;;;;;;;;;;2346615;57;21041;-77
2021/12/17 09:28:22;;;;;;;17.08;5.97;;;;;;;;;;2347800;57;21033;-76
2021/12/17 09:30:49;;;;;;;11.10;6.00;;;;;;;;;;2347123;57;21097;-76
2021/12/17 09:33:16;;;;;;;12.23;6.65;;;;;;;;;;2346403;57;21093;-75
2021/12/17 09:35:43;;;;;;;13.35;7.10;;;;;;;;;;2347202;57;21097;-76
2021/12/17 09:38:10;;;;;;;9.13;5.35;;;;;;;;;;2351624;53;21544;-76
2021/12/17 09:40:38;;;;;;;13.60;5.93;;;;;;;;;;2349617;53;21572;-76
2021/12/17 09:43:06;;;;;;;12.25;6.30;;;;;;;;;;2353261;53;21087;-76
2021/12/17 09:45:33;;;;;;;9.70;5.87;;;;;;;;;;2345990;57;21129;-76
2021/12/17 09:48:00;;;;;;;13.90;6.72;;;;;;;;;;2359542;53;21097;-76
2021/12/17 09:50:27;;;;;;;14.57;6.00;;;;;;;;;;2346127;57;21408;-75
2021/12/17 09:52:54;;;;;;;14.45;5.70;;;;;;;;;;2346258;57;21030;-75
2021/12/17 09:55:22;;;;;;;10.35;5.28;;;;;;;;;;2382094;53;21608;-75
2021/12/17 09:57:49;;;;;;;9.95;5.20;;;;;;;;;;2346295;57;21025;-75
2021/12/17 10:00:19;;;;;;;13.50;6.00;;;;;;;;;;2345970;57;21125;-75
2021/12/17 10:02:46;;;;;;;10.20;5.72;;;;;;;;;;2344950;57;22095;-74
2021/12/17 10:05:15;;;;;;;10.45;5.57;;;;;;;;;;2346185;57;22147;-77
2021/12/17 10:07:43;;;;;;;12.25;5.65;;;;;;;;;;2352266;53;21339;-75
2021/12/17 10:10:10;;;;;;;9.43;5.10;;;;;;;;;;2344881;57;21055;-75
2021/12/17 10:12:38;;;;;;;9.30;5.32;;;;;;;;;;2364436;53;21335;-74
2021/12/17 10:15:07;;;;;;;9.57;5.85;;;;;;;;;;2345577;57;21057;-76
2021/12/17 10:17:35;;;;;;;10.77;4.25;;;;;;;;;;2345424;57;21129;-74
2021/12/17 10:20:03;;;;;;;8.15;4.57;;;;;;;;;;2345140;57;21034;-74
2021/12/17 10:22:31;;;;;;;5.75;3.80;;;;;;;;;;2346221;57;21077;-75
2021/12/17 10:24:59;;;;;;;7.62;3.95;;;;;;;;;;2346051;54;21105;-75
2021/12/17 10:27:28;;;;;;;5.28;3.22;;;;;;;;;;2346198;57;21677;-75
2021/12/17 10:29:56;;;;;;;5.62;3.33;;;;;;;;;;2346189;57;21053;-76
2021/12/17 10:32:24;;;;;;;6.37;3.42;;;;;;;;;;2345854;57;21613;-76
2021/12/17 10:35:05;;;;;;;7.93;2.87;;;;;;;;;;2346072;57;21053;-74
2021/12/17 10:37:33;;;;;;;3.22;2.55;;;;;;;;;;2346295;57;21050;-74
2021/12/17 10:40:00;;;;;;;5.40;2.55;;;;;;;;;;2345540;57;21041;-74
2021/12/17 10:42:32;;;;;;;4.78;2.42;;;;;;;;;;2345818;57;21185;-75
2021/12/17 10:45:10;;;;;;;5.72;2.90;;;;;;;;;;2346142;57;21160;-74
2021/12/17 10:47:38;;;;;;;3.70;2.25;;;;;;;;;;2382082;52;21445;-78
2021/12/17 10:50:06;;;;;;;4.12;2.95;;;;;;;;;;2360675;57;21025;-78
2021/12/17 10:52:39;;;;;;;3.70;2.40;;;;;;;;;;2360644;57;21109;-78
2021/12/17 10:55:11;;;;;;;3.95;2.60;;;;;;;;;;2362324;57;21101;-78
2021/12/17 10:57:38;;;;;;;5.18;2.92;;;;;;;;;;2362949;57;21029;-78
2021/12/17 11:00:06;;;;;;;4.47;2.85;;;;;;;;;;2362372;57;21029;-78
2021/12/17 11:02:33;;;;;;;5.15;3.12;;;;;;;;;;2363018;57;21590;-77
2021/12/17 11:05:10;;;;;;;5.07;3.37;;;;;;;;;;2613121;53;21081;-78
2021/12/17 11:07:38;;;;;;;5.78;3.10;;;;;;;;;;2363116;57;21043;-78
2021/12/17 11:10:06;;;;;;;3.08;2.22;;;;;;;;;;2362976;57;22162;-78
2021/12/17 11:12:58;;;;;;;3.10;2.20;;;;;;;;;;2362553;57;21069;-78
2021/12/17 11:15:26;;;;;;;2.20;1.62;;;;;;;;;;2363325;57;21045;-77
2021/12/17 11:17:55;;;;;;;3.85;2.20;;;;;;;;;;2363120;57;21057;-78
2021/12/17 11:20:24;;;;;;;3.42;1.90;;;;;;;;;;2362363;57;21429;-77
2021/12/17 11:22:51;;;;;;;2.55;2.00;;;;;;;;;;2361305;57;21160;-77
2021/12/17 11:25:19;;;;;;;4.60;2.20;;;;;;;;;;2363370;57;21045;-77
2021/12/17 11:28:15;;;;;;;4.28;2.50;;;;;;;;;;2355567;57;21125;-77
2021/12/17 11:30:43;;;;;;;3.53;2.35;;;;;;;;;;2345141;57;21291;-77
2021/12/17 11:33:10;;;;;;;4.07;2.65;;;;;;;;;;2359146;57;21033;-77
2021/12/17 11:35:38;;;;;;;3.62;2.70;;;;;;;;;;2363094;57;21100;-77
2021/12/17 11:38:07;;;;;;;3.28;2.47;;;;;;;;;;2363115;57;21116;-77
2021/12/17 11:40:37;;;;;;;2.87;2.10;;;;;;;;;;2613687;53;21108;-77
2021/12/17 11:43:15;;;;;;;3.25;2.20;;;;;;;;;;2362356;57;21088;-77
2021/12/17 11:45:42;;;;;;;3.37;2.10;;;;;;;;;;2360924;57;21124;-77
2021/12/17 11:48:16;;;;;;;3.10;2.33;;;;;;;;;;2369619;56;21516;-77
2021/12/17 11:53:59;;;;;;;3.80;2.40;;;;;;;;;;2652336;52;20902;-77
2021/12/17 11:56:34;;;;;;;3.35;2.17;;;;;;;;;;2396993;56;21299;-77
2021/12/17 11:59:01;;;;;;;3.45;2.40;;;;;;;;;;2395691;56;21034;-77
2021/12/17 12:01:46;;;;;;;3.37;2.30;;;;;;;;;;2393714;56;21440;-77
2021/12/17 12:04:22;;;;;;;5.05;2.30;;;;;;;;;;2394927;56;21046;-76
2021/12/17 12:06:59;;;;;;;3.95;2.62;;;;;;;;;;2395390;56;21049;-76
2021/12/17 12:09:46;;;;;;;4.87;3.03;;;;;;;;;;2394782;56;21030;-76
2021/12/17 12:12:13;;;;;;;4.78;3.65;;;;;;;;;;2395529;56;21118;-76
2021/12/17 12:14:40;;;;;;;4.22;2.50;;;;;;;;;;2395374;56;21049;-76
2021/12/17 12:17:07;;;;;;;7.80;2.33;;;;;;;;;;2396615;56;21580;-76
2021/12/17 12:19:49;;;;;;;2.10;1.75;;;;;;;;;;2651582;52;21078;-76
2021/12/17 12:22:29;;;;;;;2.83;1.98;;;;;;;;;;2394899;56;21035;-76
2021/12/17 12:25:15;;;;;;;3.70;2.50;;;;;;;;;;2396726;56;21042;-76
2021/12/17 12:27:46;;;;;;;2.47;1.90;;;;;;;;;;2655433;52;21101;-76
2021/12/17 12:30:14;;;;;;;5.45;2.65;;;;;;;;;;2396166;56;21042;-76
2021/12/17 12:33:04;;;;;;;3.85;3.05;;;;;;;;;;2396473;56;21030;-76
2021/12/17 12:35:32;;;;;;;4.12;2.62;;;;;;;;;;2396509;56;21043;-76
2021/12/17 12:38:15;;;;;;;3.10;2.10;;;;;;;;;;2654077;52;21130;-76
2021/12/17 12:40:45;;;;;;;3.05;2.12;;;;;;;;;;2394795;56;21054;-77
2021/12/17 12:43:25;;;;;;;2.67;1.75;;;;;;;;;;2396710;56;21145;-77
2021/12/17 12:45:52;;;;;;;2.70;2.00;;;;;;;;;;2654259;52;21584;-77
2021/12/17 12:48:29;;;;;;;2.65;1.80;;;;;;;;;;2396296;56;21383;-76
2021/12/17 12:51:13;;;;;;;1.83;1.58;;;;;;;;;;2395885;56;21118;-77
2021/12/17 12:53:45;;;;;;;3.72;2.15;;;;;;;;;;2396142;56;21097;-77
2021/12/17 12:56:17;;;;;;;2.97;1.73;;;;;;;;;;2396163;56;21093;-77
2021/12/17 12:58:47;;;;;;;2.67;2.00;;;;;;;;;;2396175;56;21640;-77
2021/12/17 13:01:15;;;;;;;3.35;2.47;;;;;;;;;;2395100;56;21046;-77
2021/12/17 13:03:44;;;;;;;4.75;2.33;;;;;;;;;;2655004;52;21468;-77
2021/12/17 13:06:16;;;;;;;2.33;1.92;;;;;;;;;;2394183;56;22046;-77
2021/12/17 13:08:43;;;;;;;3.65;2.30;;;;;;;;;;2394468;56;21113;-77
2021/12/17 13:11:10;;;;;;;3.83;2.40;;;;;;;;;;2396855;56;21050;-77
2021/12/17 13:13:43;;;;;;;3.50;2.58;;;;;;;;;;2396162;56;21043;-77
2021/12/17 13:16:15;;;;;;;4.72;2.30;;;;;;;;;;2655252;52;21101;-77
2021/12/17 13:21:43;;;;;;;5.95;2.80;;;;;;;;;;2396561;56;20970;-77
2021/12/17 13:24:13;;;;;;;5.12;2.90;;;;;;;;;;2396414;56;21038;-77
2021/12/17 13:26:41;;;;;;;7.05;4.00;;;;;;;;;;2396468;56;21038;-77
2021/12/17 13:29:11;;;;;;;6.80;3.50;;;;;;;;;;2396210;56;21540;-77
2021/12/17 13:31:44;;;;;;;10.40;5.07;;;;;;;;;;2397059;56;21041;-77
2021/12/17 13:34:15;;;;;;;8.95;4.37;;;;;;;;;;2396853;56;21544;-77
2021/12/17 13:36:53;;;;;;;6.78;4.85;;;;;;;;;;2396442;56;21026;-77
2021/12/17 13:39:21;;;;;;;9.48;4.93;;;;;;;;;;2396733;56;21105;-77
2021/12/17 13:41:48;;;;;;;7.40;4.05;;;;;;;;;;2396263;56;21007;-77
2021/12/17 13:44:25;;;;;;;7.87;4.68;;;;;;;;;;2395983;56;21093;-77
2021/12/17 13:46:53;;;;;;;9.50;4.65;;;;;;;;;;2653767;52;21501;-77
2021/12/17 13:49:21;;;;;;;9.75;5.05;;;;;;;;;;2396381;56;21639;-76
2021/12/17 13:51:48;;;;;;;9.07;5.50;;;;;;;;;;2396687;56;21101;-76
2021/12/17 13:54:16;;;;;;;9.35;5.22;;;;;;;;;;2396914;56;21160;-76
2021/12/17 13:56:43;;;;;;;9.70;4.90;;;;;;;;;;2654792;52;21525;-76
2021/12/17 13:59:10;;;;;;;7.05;4.43;;;;;;;;;;2396391;56;21312;-76
2021/12/17 14:01:38;;;;;;;7.00;4.37;;;;;;;;;;2655250;52;21050;-76
2021/12/17 14:04:13;;;;;;;7.93;5.03;;;;;;;;;;2654877;52;21031;-76
2021/12/17 14:06:51;;;;;;;9.77;4.87;;;;;;;;;;2654869;52;21344;-76
2021/12/17 14:09:19;;;;;;;11.60;5.93;;;;;;;;;;2395865;56;21046;-76
2021/12/17 14:11:46;;;;;;;10.30;5.32;;;;;;;;;;2396576;56;21620;-76
2021/12/17 14:14:21;;;;;;;8.75;4.40;;;;;;;;;;2655588;52;21092;-76
2021/12/17 14:16:56;;;;;;;12.60;6.47;;;;;;;;;;2396887;56;21703;-76
2021/12/17 14:19:35;;;;;;;10.43;5.53;;;;;;;;;;2395969;56;21668;-77
2021/12/17 14:22:02;;;;;;;10.38;5.75;;;;;;;;;;2397048;56;21054;-77
2021/12/17 14:24:30;;;;;;;10.65;5.72;;;;;;;;;;2654870;52;21459;-76
2021/12/17 14:26:57;;;;;;;11.65;6.53;;;;;;;;;;2395385;56;21120;-76
2021/12/17 14:29:28;;;;;;;13.02;6.43;;;;;;;;;;2395640;56;21118;-76
2021/12/17 14:31:59;;;;;;;12.80;6.90;;;;;;;;;;2395932;56;21022;-76
2021/12/17 14:34:26;;;;;;;12.40;6.62;;;;;;;;;;2396156;56;21089;-77
2021/12/17 14:37:01;;;;;;;12.75;7.28;;;;;;;;;;2396122;56;21516;-76
2021/12/17 14:39:34;;;;;;;12.88;6.82;;;;;;;;;;2396515;56;21101;-76
2021/12/17 14:42:04;;;;;;;13.02;6.90;;;;;;;;;;2396697;56;21106;-76
2021/12/17 14:44:38;;;;;;;9.80;5.90;;;;;;;;;;2655010;52;21053;-76
2021/12/17 14:47:11;;;;;;;15.13;8.15;;;;;;;;;;2396862;56;21038;-77
2021/12/17 14:59:34;;;;;;;12.40;7.55;;;;;;;;;;2396595;56;21010;-77
2021/12/17 15:02:13;;;;;;;16.55;8.13;;;;;;;;;;2396808;56;21133;-76
2021/12/17 15:04:40;;;;;;;16.55;8.40;;;;;;;;;;2654892;52;21034;-77
2021/12/17 15:07:07;;;;;;;15.93;8.13;;;;;;;;;;2396084;56;21044;-77
2021/12/17 15:09:35;;;;;;;19.48;8.68;;;;;;;;;;2396556;56;21046;-77
2021/12/17 15:12:12;;;;;;;17.27;8.63;;;;;;;;;;2396633;56;21396;-77
2021/12/17 15:14:39;;;;;;;18.42;9.05;;;;;;;;;;2654273;52;21098;-77
2021/12/17 15:17:06;;;;;;;16.90;8.65;;;;;;;;;;2396707;56;21117;-77
2021/12/17 15:19:34;;;;;;;14.75;8.73;;;;;;;;;;2396145;56;21038;-77
2021/12/17 15:22:01;;;;;;;18.23;9.02;;;;;;;;;;2655185;52;21138;-77
2021/12/17 15:24:28;;;;;;;17.12;9.05;;;;;;;;;;2396690;56;21049;-77
2021/12/17 15:26:55;;;;;;;20.02;10.48;;;;;;;;;;2396723;56;21117;-77
2021/12/17 15:29:24;;;;;;;26.80;12.00;;;;;;;;;;2396270;56;21114;-76
2021/12/17 15:31:52;;;;;;;15.52;9.40;;;;;;;;;;2655114;52;21356;-76
2021/12/17 15:34:19;;;;;;;17.48;9.70;;;;;;;;;;2396846;56;21034;-76
2021/12/17 15:36:46;;;;;;;18.35;11.20;;;;;;;;;;2396505;56;21110;-76
2021/12/17 15:39:13;;;;;;;16.02;9.65;;;;;;;;;;2396452;56;21045;-77
2021/12/17 15:41:41;;;;;;;14.27;8.45;;;;;;;;;;2396520;56;21118;-76
2021/12/17 15:44:08;;;;;;;18.62;10.60;;;;;;;;;;2396755;56;21034;-76
2021/12/17 15:46:36;;;;;;;14.57;8.55;;;;;;;;;;2396650;56;21098;-75
2021/12/17 15:49:03;;;;;;;23.73;12.50;;;;;;;;;;2396119;56;21604;-75
2021/12/17 15:51:30;;;;;;;20.65;11.52;;;;;;;;;;2636133;52;21015;-76
2021/12/17 15:53:57;;;;;;;18.85;11.18;;;;;;;;;;2381102;56;21102;-77
2021/12/17 15:56:24;;;;;;;18.02;10.82;;;;;;;;;;2380870;56;21035;-77
2021/12/17 15:58:51;;;;;;;23.25;12.35;;;;;;;;;;2380517;56;21109;-76
2021/12/17 16:01:18;;;;;;;23.77;12.05;;;;;;;;;;2380659;56;21118;-77
2021/12/17 16:03:47;;;;;;;20.77;11.05;;;;;;;;;;2380787;56;21034;-75
2021/12/17 16:06:14;;;;;;;25.33;12.68;;;;;;;;;;2635478;52;21058;-76
2021/12/17 16:08:45;;;;;;;20.33;12.32;;;;;;;;;;2378306;56;21015;-77
2021/12/17 16:17:33;;;;;;;25.00;14.73;;;;;;;;;;2379113;56;21037;-77
2021/12/17 16:22:46;;;;;;;24.52;13.40;;;;;;;;;;2379153;56;21026;-77
2021/12/17 16:25:13;;;;;;;25.70;13.50;;;;;;;;;;2380538;56;21567;-77
2021/12/17 16:27:40;;;;;;;23.20;13.52;;;;;;;;;;2380358;56;21106;-77
2021/12/17 16:30:08;;;;;;;25.23;14.25;;;;;;;;;;2380429;56;21105;-77
2021/12/17 16:32:36;;;;;;;27.20;13.10;;;;;;;;;;2380751;56;21051;-77
2021/12/17 16:35:03;;;;;;;20.73;11.48;;;;;;;;;;2380780;56;21583;-77
2021/12/17 16:37:30;;;;;;;20.90;11.73;;;;;;;;;;2380679;56;21533;-77
2021/12/17 16:39:57;;;;;;;15.18;8.18;;;;;;;;;;2380062;56;21034;-77
2021/12/17 16:42:24;;;;;;;16.65;8.13;;;;;;;;;;2380700;56;21050;-77
2021/12/17 16:45:19;;;;;;;15.40;8.73;;;;;;;;;;2380391;56;21031;-77
2021/12/17 16:47:46;;;;;;;13.88;8.43;;;;;;;;;;2394800;53;70615;-78
2021/12/17 16:50:13;;;;;;;15.20;8.18;;;;;;;;;;2337743;53;21050;-77
2021/12/17 16:52:40;;;;;;;10.25;6.72;;;;;;;;;;2321146;57;21119;-77
2021/12/17 16:55:09;;;;;;;8.95;5.60;;;;;;;;;;2321527;57;21119;-78
2021/12/17 16:57:36;;;;;;;10.52;6.30;;;;;;;;;;2322890;57;21071;-77
2021/12/17 17:00:04;;;;;;;9.98;6.18;;;;;;;;;;2358491;56;21637;-78
2021/12/17 17:02:31;;;;;;;9.13;5.70;;;;;;;;;;2358271;53;21059;-77
2021/12/17 17:04:58;;;;;;;10.75;6.43;;;;;;;;;;2358423;57;21542;-77
2021/12/17 17:07:26;;;;;;;11.45;7.25;;;;;;;;;;2357932;57;21117;-76
2021/12/17 17:09:53;;;;;;;8.98;5.57;;;;;;;;;;2357549;53;21058;-77
2021/12/17 17:12:23;;;;;;;11.50;6.87;;;;;;;;;;2358206;57;21547;-77
2021/12/17 17:14:50;;;;;;;12.57;7.43;;;;;;;;;;2358005;54;21463;-77
2021/12/17 17:17:17;;;;;;;11.82;7.20;;;;;;;;;;2358180;56;21054;-77
2021/12/17 17:19:45;;;;;;;11.50;6.47;;;;;;;;;;2357723;57;21086;-76
2021/12/17 17:22:12;;;;;;;11.70;6.90;;;;;;;;;;2365838;53;21538;-77
2021/12/17 17:24:39;;;;;;;10.20;6.78;;;;;;;;;;2375571;53;21110;-76
2021/12/17 17:27:06;;;;;;;11.40;5.80;;;;;;;;;;2357935;53;22237;-77
2021/12/17 17:29:34;;;;;;;11.50;5.40;;;;;;;;;;2357274;57;21042;-77
2021/12/17 17:32:01;;;;;;;13.57;6.10;;;;;;;;;;2357899;57;21602;-77
2021/12/17 17:34:28;;;;;;;10.07;6.00;;;;;;;;;;2358774;53;21122;-76